sensor_id;sensor_type;location;lat;lon;timestamp;temperature;humidity
7290;DHT22;63176;52.678;13.250;2023-11-22T00:00:40;0.90;99.90
7290;DHT22;63176;52.678;13.250;2023-11-22T00:03:06;1.00;99.90
7290;DHT22;63176;52.678;13.250;2023-11-22T00:05:32;0.90;99.90
7290;DHT22;63176;52.678;13.250;2023-11-22T00:07:57;0.90;99.90
7290;DHT22;63176;52.678;13.250;2023-11-22T00:10:23;0.80;99.90
7290;DHT22;63176;52.678;13.250;2023-11-22T00:12:49;0.80;99.90
7290;DHT22;63176;52.678;13.250;2023-11-22T00:15:14;0.80;99.90
7290;DHT22;63176;52.678;13.250;2023-11-22T00:17:44;0.70;99.90
7290;DHT22;63176;52.678;13.250;2023-11-22T00:20:10;0.90;99.90
7290;DHT22;63176;52.678;13.250;2023-11-22T00:22:36;1.00;99.90
7290;DHT22;63176;52.678;13.250;2023-11-22T00:25:02;1.00;99.90
7290;DHT22;63176;52.678;13.250;2023-11-22T00:27:29;0.90;99.90
7290;DHT22;63176;52.678;13.250;2023-11-22T00:29:58;0.90;99.90
7290;DHT22;63176;52.678;13.250;2023-11-22T00:32:24;0.80;99.90
7290;DHT22;63176;52.678;13.250;2023-11-22T00:34:51;0.70;99.90
7290;DHT22;63176;52.678;13.250;2023-11-22T00:37:18;0.60;99.90
7290;DHT22;63176;52.678;13.250;2023-11-22T00:39:43;0.60;99.90
7290;DHT22;63176;52.678;13.250;2023-11-22T00:42:10;0.60;99.90
7290;DHT22;63176;52.678;13.250;2023-11-22T00:44:35;0.60;99.90
7290;DHT22;63176;52.678;13.250;2023-11-22T00:47:02;0.60;99.90
7290;DHT22;63176;52.678;13.250;2023-11-22T00:49:28;0.50;99.90
7290;DHT22;63176;52.678;13.250;2023-11-22T00:51:53;0.50;99.90
7290;DHT22;63176;52.678;13.250;2023-11-22T00:54:19;0.50;99.90
7290;DHT22;63176;52.678;13.250;2023-11-22T00:56:47;0.50;99.90
7290;DHT22;63176;52.678;13.250;2023-11-22T00:59:13;0.50;99.90
7290;DHT22;63176;52.678;13.250;2023-11-22T01:01:40;0.50;99.90
7290;DHT22;63176;52.678;13.250;2023-11-22T01:04:06;0.50;99.90
7290;DHT22;63176;52.678;13.250;2023-11-22T01:06:33;0.40;99.90
7290;DHT22;63176;52.678;13.250;2023-11-22T01:08:59;0.60;99.90
7290;DHT22;63176;52.678;13.250;2023-11-22T01:11:24;0.50;99.90
7290;DHT22;63176;52.678;13.250;2023-11-22T01:13:50;0.50;99.90
7290;DHT22;63176;52.678;13.250;2023-11-22T01:16:16;0.40;99.90
7290;DHT22;63176;52.678;13.250;2023-11-22T01:18:42;0.30;99.90
7290;DHT22;63176;52.678;13.250;2023-11-22T01:21:08;0.30;99.90
7290;DHT22;63176;52.678;13.250;2023-11-22T01:23:34;0.20;99.90
7290;DHT22;63176;52.678;13.250;2023-11-22T01:26:00;0.20;99.90
7290;DHT22;63176;52.678;13.250;2023-11-22T01:28:28;0.20;99.90
7290;DHT22;63176;52.678;13.250;2023-11-22T01:30:54;0.10;99.90
7290;DHT22;63176;52.678;13.250;2023-11-22T01:33:23;0.10;99.90
7290;DHT22;63176;52.678;13.250;2023-11-22T01:35:49;0.10;99.90
7290;DHT22;63176;52.678;13.250;2023-11-22T01:38:18;0.20;99.90
7290;DHT22;63176;52.678;13.250;2023-11-22T01:40:47;0.20;99.90
7290;DHT22;63176;52.678;13.250;2023-11-22T01:43:20;0.20;99.90
7290;DHT22;63176;52.678;13.250;2023-11-22T01:45:49;0.20;99.90
7290;DHT22;63176;52.678;13.250;2023-11-22T01:48:16;0.10;99.90
7290;DHT22;63176;52.678;13.250;2023-11-22T01:50:44;0.00;99.90
7290;DHT22;63176;52.678;13.250;2023-11-22T01:53:12;0.00;99.90
7290;DHT22;63176;52.678;13.250;2023-11-22T01:55:39;-0.10;99.90
7290;DHT22;63176;52.678;13.250;2023-11-22T01:58:06;0.00;99.90
7290;DHT22;63176;52.678;13.250;2023-11-22T02:00:36;-0.10;99.90
7290;DHT22;63176;52.678;13.250;2023-11-22T02:03:07;-0.10;99.90
7290;DHT22;63176;52.678;13.250;2023-11-22T02:05:33;-0.10;99.90
7290;DHT22;63176;52.678;13.250;2023-11-22T02:07:59;-0.10;99.90
7290;DHT22;63176;52.678;13.250;2023-11-22T02:10:25;0.10;99.90
7290;DHT22;63176;52.678;13.250;2023-11-22T02:12:51;0.00;99.90
7290;DHT22;63176;52.678;13.250;2023-11-22T02:15:17;0.00;99.90
7290;DHT22;63176;52.678;13.250;2023-11-22T02:17:42;0.00;99.90
7290;DHT22;63176;52.678;13.250;2023-11-22T02:20:10;-0.10;99.90
7290;DHT22;63176;52.678;13.250;2023-11-22T02:22:47;-0.10;99.90
7290;DHT22;63176;52.678;13.250;2023-11-22T02:25:13;-0.20;99.90
7290;DHT22;63176;52.678;13.250;2023-11-22T02:27:39;-0.20;99.90
7290;DHT22;63176;52.678;13.250;2023-11-22T02:30:06;-0.20;99.90
7290;DHT22;63176;52.678;13.250;2023-11-22T02:32:32;-0.30;99.90
7290;DHT22;63176;52.678;13.250;2023-11-22T02:34:59;-0.10;99.90
7290;DHT22;63176;52.678;13.250;2023-11-22T02:37:25;0.00;99.90
7290;DHT22;63176;52.678;13.250;2023-11-22T02:40:16;0.00;99.90
7290;DHT22;63176;52.678;13.250;2023-11-22T02:42:46;0.00;99.90
7290;DHT22;63176;52.678;13.250;2023-11-22T02:45:14;0.00;99.90
7290;DHT22;63176;52.678;13.250;2023-11-22T02:47:40;-0.10;99.90
7290;DHT22;63176;52.678;13.250;2023-11-22T02:50:06;-0.10;99.90
7290;DHT22;63176;52.678;13.250;2023-11-22T02:52:32;0.00;99.90
7290;DHT22;63176;52.678;13.250;2023-11-22T02:54:58;0.00;99.90
7290;DHT22;63176;52.678;13.250;2023-11-22T02:57:24;-0.10;99.90
7290;DHT22;63176;52.678;13.250;2023-11-22T02:59:50;-0.10;99.90
7290;DHT22;63176;52.678;13.250;2023-11-22T03:02:15;-0.10;99.90
7290;DHT22;63176;52.678;13.250;2023-11-22T03:04:44;-0.10;99.90
7290;DHT22;63176;52.678;13.250;2023-11-22T03:10:31;0.20;99.90
7290;DHT22;63176;52.678;13.250;2023-11-22T03:12:57;0.30;99.90
7290;DHT22;63176;52.678;13.250;2023-11-22T03:15:23;0.30;99.90
7290;DHT22;63176;52.678;13.250;2023-11-22T03:17:48;0.30;99.90
7290;DHT22;63176;52.678;13.250;2023-11-22T03:20:15;0.10;99.90
7290;DHT22;63176;52.678;13.250;2023-11-22T03:22:42;0.10;99.90
7290;DHT22;63176;52.678;13.250;2023-11-22T03:25:10;0.10;99.90
7290;DHT22;63176;52.678;13.250;2023-11-22T03:27:37;0.00;99.90
7290;DHT22;63176;52.678;13.250;2023-11-22T03:30:03;0.10;99.90
7290;DHT22;63176;52.678;13.250;2023-11-22T03:32:29;0.00;99.90
7290;DHT22;63176;52.678;13.250;2023-11-22T03:34:55;-0.10;99.90
7290;DHT22;63176;52.678;13.250;2023-11-22T03:37:21;0.10;99.90
7290;DHT22;63176;52.678;13.250;2023-11-22T03:39:47;-0.10;99.90
7290;DHT22;63176;52.678;13.250;2023-11-22T03:42:16;-0.20;99.90
7290;DHT22;63176;52.678;13.250;2023-11-22T03:44:42;-0.20;99.90
7290;DHT22;63176;52.678;13.250;2023-11-22T03:47:10;-0.40;99.90
7290;DHT22;63176;52.678;13.250;2023-11-22T03:49:36;-0.50;99.90
7290;DHT22;63176;52.678;13.250;2023-11-22T03:52:02;-0.60;99.90
7290;DHT22;63176;52.678;13.250;2023-11-22T03:54:28;-0.70;99.90
7290;DHT22;63176;52.678;13.250;2023-11-22T03:56:53;-0.80;99.90
7290;DHT22;63176;52.678;13.250;2023-11-22T03:59:19;-0.80;99.90
7290;DHT22;63176;52.678;13.250;2023-11-22T04:01:45;-0.80;99.90
7290;DHT22;63176;52.678;13.250;2023-11-22T04:04:10;-0.70;99.90
7290;DHT22;63176;52.678;13.250;2023-11-22T04:06:36;-0.60;99.90
7290;DHT22;63176;52.678;13.250;2023-11-22T04:09:02;-0.50;99.90
7290;DHT22;63176;52.678;13.250;2023-11-22T04:11:28;-0.40;99.90
7290;DHT22;63176;52.678;13.250;2023-11-22T04:13:55;-0.30;99.90
7290;DHT22;63176;52.678;13.250;2023-11-22T04:16:21;-0.30;99.90
7290;DHT22;63176;52.678;13.250;2023-11-22T04:18:47;-0.50;99.90
7290;DHT22;63176;52.678;13.250;2023-11-22T04:21:12;-0.60;99.90
7290;DHT22;63176;52.678;13.250;2023-11-22T04:23:38;-0.70;99.90
7290;DHT22;63176;52.678;13.250;2023-11-22T04:26:04;-0.80;99.90
7290;DHT22;63176;52.678;13.250;2023-11-22T04:28:32;-0.80;99.90
7290;DHT22;63176;52.678;13.250;2023-11-22T04:30:58;-0.90;99.90
7290;DHT22;63176;52.678;13.250;2023-11-22T04:33:24;-1.00;99.90
7290;DHT22;63176;52.678;13.250;2023-11-22T04:35:51;-1.00;99.90
7290;DHT22;63176;52.678;13.250;2023-11-22T04:38:17;-1.10;99.90
7290;DHT22;63176;52.678;13.250;2023-11-22T04:40:43;-1.10;99.90
7290;DHT22;63176;52.678;13.250;2023-11-22T04:43:09;-1.20;99.90
7290;DHT22;63176;52.678;13.250;2023-11-22T04:45:35;-1.20;99.90
7290;DHT22;63176;52.678;13.250;2023-11-22T04:48:01;-1.20;99.90
7290;DHT22;63176;52.678;13.250;2023-11-22T04:50:26;-1.20;99.90
7290;DHT22;63176;52.678;13.250;2023-11-22T04:52:52;-1.10;99.90
7290;DHT22;63176;52.678;13.250;2023-11-22T04:55:18;-1.10;99.90
7290;DHT22;63176;52.678;13.250;2023-11-22T04:57:49;-1.00;99.90
7290;DHT22;63176;52.678;13.250;2023-11-22T05:00:15;-0.90;99.90
7290;DHT22;63176;52.678;13.250;2023-11-22T05:02:43;-0.90;99.90
7290;DHT22;63176;52.678;13.250;2023-11-22T05:05:09;-0.80;99.90
7290;DHT22;63176;52.678;13.250;2023-11-22T05:07:38;-0.80;99.90
7290;DHT22;63176;52.678;13.250;2023-11-22T05:10:05;-0.90;99.90
7290;DHT22;63176;52.678;13.250;2023-11-22T05:12:31;-1.10;99.90
7290;DHT22;63176;52.678;13.250;2023-11-22T05:14:57;-1.00;99.90
7290;DHT22;63176;52.678;13.250;2023-11-22T05:17:23;-1.00;99.90
7290;DHT22;63176;52.678;13.250;2023-11-22T05:19:49;-0.70;99.90
7290;DHT22;63176;52.678;13.250;2023-11-22T05:22:16;-0.90;99.90
7290;DHT22;63176;52.678;13.250;2023-11-22T05:24:41;-0.90;99.90
7290;DHT22;63176;52.678;13.250;2023-11-22T05:27:08;-0.90;99.90
7290;DHT22;63176;52.678;13.250;2023-11-22T05:29:34;-1.00;99.90
7290;DHT22;63176;52.678;13.250;2023-11-22T05:32:00;-1.00;99.90
7290;DHT22;63176;52.678;13.250;2023-11-22T05:34:26;-1.00;99.90
7290;DHT22;63176;52.678;13.250;2023-11-22T05:36:52;-0.90;99.90
7290;DHT22;63176;52.678;13.250;2023-11-22T05:39:18;-0.90;99.90
7290;DHT22;63176;52.678;13.250;2023-11-22T05:41:44;-0.90;99.90
7290;DHT22;63176;52.678;13.250;2023-11-22T05:44:10;-0.70;99.90
7290;DHT22;63176;52.678;13.250;2023-11-22T05:46:36;-0.70;99.90
7290;DHT22;63176;52.678;13.250;2023-11-22T05:49:04;-0.80;99.90
7290;DHT22;63176;52.678;13.250;2023-11-22T05:51:29;-0.90;99.90
7290;DHT22;63176;52.678;13.250;2023-11-22T05:53:55;-0.90;99.90
7290;DHT22;63176;52.678;13.250;2023-11-22T05:56:21;-1.00;99.90
7290;DHT22;63176;52.678;13.250;2023-11-22T05:58:47;-1.00;99.90
7290;DHT22;63176;52.678;13.250;2023-11-22T06:01:13;-1.10;99.90
7290;DHT22;63176;52.678;13.250;2023-11-22T06:03:39;-1.10;99.90
7290;DHT22;63176;52.678;13.250;2023-11-22T06:06:06;-1.10;99.90
7290;DHT22;63176;52.678;13.250;2023-11-22T06:08:32;-1.10;99.90
7290;DHT22;63176;52.678;13.250;2023-11-22T06:10:58;-1.20;99.90
7290;DHT22;63176;52.678;13.250;2023-11-22T06:13:25;-1.30;99.90
7290;DHT22;63176;52.678;13.250;2023-11-22T06:15:51;-1.30;99.90
7290;DHT22;63176;52.678;13.250;2023-11-22T06:18:17;-1.20;99.90
7290;DHT22;63176;52.678;13.250;2023-11-22T06:20:44;-1.20;99.90
7290;DHT22;63176;52.678;13.250;2023-11-22T06:23:10;-1.30;99.90
7290;DHT22;63176;52.678;13.250;2023-11-22T06:25:36;-1.40;99.90
7290;DHT22;63176;52.678;13.250;2023-11-22T06:28:02;-1.40;99.90
7290;DHT22;63176;52.678;13.250;2023-11-22T06:30:28;-1.20;99.90
7290;DHT22;63176;52.678;13.250;2023-11-22T06:32:56;-1.30;99.90
7290;DHT22;63176;52.678;13.250;2023-11-22T06:35:22;-1.20;99.90
7290;DHT22;63176;52.678;13.250;2023-11-22T06:37:48;-1.40;99.90
7290;DHT22;63176;52.678;13.250;2023-11-22T06:40:13;-1.40;99.90
7290;DHT22;63176;52.678;13.250;2023-11-22T06:42:40;-1.40;99.90
7290;DHT22;63176;52.678;13.250;2023-11-22T06:45:07;-1.40;99.90
7290;DHT22;63176;52.678;13.250;2023-11-22T06:47:36;-1.40;99.90
7290;DHT22;63176;52.678;13.250;2023-11-22T06:50:02;-1.50;99.90
7290;DHT22;63176;52.678;13.250;2023-11-22T06:52:40;-1.50;99.90
7290;DHT22;63176;52.678;13.250;2023-11-22T06:55:07;-1.60;99.90
7290;DHT22;63176;52.678;13.250;2023-11-22T06:57:34;-1.60;99.90
7290;DHT22;63176;52.678;13.250;2023-11-22T06:59:59;-1.40;99.90
7290;DHT22;63176;52.678;13.250;2023-11-22T07:02:26;-1.30;99.90
7290;DHT22;63176;52.678;13.250;2023-11-22T07:04:52;-1.30;99.90
7290;DHT22;63176;52.678;13.250;2023-11-22T07:07:18;-1.30;99.90
7290;DHT22;63176;52.678;13.250;2023-11-22T07:09:45;-1.40;99.90
7290;DHT22;63176;52.678;13.250;2023-11-22T07:12:11;-1.30;99.90
7290;DHT22;63176;52.678;13.250;2023-11-22T07:14:38;-1.20;99.90
7290;DHT22;63176;52.678;13.250;2023-11-22T07:17:04;-1.30;99.90
7290;DHT22;63176;52.678;13.250;2023-11-22T07:19:32;-1.20;99.90
7290;DHT22;63176;52.678;13.250;2023-11-22T07:22:06;-1.30;99.90
7290;DHT22;63176;52.678;13.250;2023-11-22T07:24:48;-1.30;99.90
7290;DHT22;63176;52.678;13.250;2023-11-22T07:27:17;-1.10;99.90
7290;DHT22;63176;52.678;13.250;2023-11-22T07:29:44;-1.30;99.90
7290;DHT22;63176;52.678;13.250;2023-11-22T07:32:11;-1.30;99.90
7290;DHT22;63176;52.678;13.250;2023-11-22T07:34:38;-1.30;99.90
7290;DHT22;63176;52.678;13.250;2023-11-22T07:37:07;-1.30;99.90
7290;DHT22;63176;52.678;13.250;2023-11-22T07:39:36;-1.30;99.90
7290;DHT22;63176;52.678;13.250;2023-11-22T07:42:04;-1.30;99.90
7290;DHT22;63176;52.678;13.250;2023-11-22T07:44:33;-1.20;99.90
7290;DHT22;63176;52.678;13.250;2023-11-22T07:46:59;-1.20;99.90
7290;DHT22;63176;52.678;13.250;2023-11-22T07:49:25;-1.10;99.90
7290;DHT22;63176;52.678;13.250;2023-11-22T07:51:51;-1.00;99.90
7290;DHT22;63176;52.678;13.250;2023-11-22T07:54:20;-0.90;99.90
7290;DHT22;63176;52.678;13.250;2023-11-22T07:56:51;-0.70;99.90
7290;DHT22;63176;52.678;13.250;2023-11-22T07:59:18;-0.50;99.90
7290;DHT22;63176;52.678;13.250;2023-11-22T08:01:44;-0.30;99.90
7290;DHT22;63176;52.678;13.250;2023-11-22T08:04:10;-0.30;99.90
7290;DHT22;63176;52.678;13.250;2023-11-22T08:06:36;-0.30;99.90
7290;DHT22;63176;52.678;13.250;2023-11-22T08:09:02;-0.20;99.90
7290;DHT22;63176;52.678;13.250;2023-11-22T08:11:29;-0.10;99.90
7290;DHT22;63176;52.678;13.250;2023-11-22T08:13:55;-0.10;99.90
7290;DHT22;63176;52.678;13.250;2023-11-22T08:16:25;0.00;99.90
7290;DHT22;63176;52.678;13.250;2023-11-22T08:18:51;0.00;99.90
7290;DHT22;63176;52.678;13.250;2023-11-22T08:21:17;0.20;99.90
7290;DHT22;63176;52.678;13.250;2023-11-22T08:23:45;0.10;99.90
7290;DHT22;63176;52.678;13.250;2023-11-22T08:26:12;0.10;99.90
7290;DHT22;63176;52.678;13.250;2023-11-22T08:28:38;0.10;99.90
7290;DHT22;63176;52.678;13.250;2023-11-22T08:31:04;0.10;99.90
7290;DHT22;63176;52.678;13.250;2023-11-22T08:33:35;0.00;99.90
7290;DHT22;63176;52.678;13.250;2023-11-22T08:36:01;0.00;99.90
7290;DHT22;63176;52.678;13.250;2023-11-22T08:38:27;0.00;99.90
7290;DHT22;63176;52.678;13.250;2023-11-22T08:40:53;0.00;99.90
7290;DHT22;63176;52.678;13.250;2023-11-22T08:43:20;0.00;99.90
7290;DHT22;63176;52.678;13.250;2023-11-22T08:45:49;0.20;99.90
7290;DHT22;63176;52.678;13.250;2023-11-22T08:48:15;0.20;99.90
7290;DHT22;63176;52.678;13.250;2023-11-22T08:50:41;0.20;99.90
7290;DHT22;63176;52.678;13.250;2023-11-22T08:53:07;0.30;99.90
7290;DHT22;63176;52.678;13.250;2023-11-22T08:55:33;0.40;99.90
7290;DHT22;63176;52.678;13.250;2023-11-22T08:57:59;0.50;99.90
7290;DHT22;63176;52.678;13.250;2023-11-22T09:00:25;0.50;99.90
7290;DHT22;63176;52.678;13.250;2023-11-22T09:02:54;0.60;99.90
7290;DHT22;63176;52.678;13.250;2023-11-22T09:05:22;0.70;99.90
7290;DHT22;63176;52.678;13.250;2023-11-22T09:07:48;0.80;99.90
7290;DHT22;63176;52.678;13.250;2023-11-22T09:10:14;0.80;99.90
7290;DHT22;63176;52.678;13.250;2023-11-22T09:12:41;0.90;99.90
7290;DHT22;63176;52.678;13.250;2023-11-22T09:15:08;1.00;99.90
7290;DHT22;63176;52.678;13.250;2023-11-22T09:17:39;1.00;99.90
7290;DHT22;63176;52.678;13.250;2023-11-22T09:20:12;1.10;99.90
7290;DHT22;63176;52.678;13.250;2023-11-22T09:22:48;1.20;99.90
7290;DHT22;63176;52.678;13.250;2023-11-22T09:25:19;1.20;99.90
7290;DHT22;63176;52.678;13.250;2023-11-22T09:27:46;1.30;99.90
7290;DHT22;63176;52.678;13.250;2023-11-22T09:30:14;1.30;99.90
7290;DHT22;63176;52.678;13.250;2023-11-22T09:32:45;1.40;99.90
7290;DHT22;63176;52.678;13.250;2023-11-22T09:35:12;1.40;99.90
7290;DHT22;63176;52.678;13.250;2023-11-22T09:37:39;1.40;99.90
7290;DHT22;63176;52.678;13.250;2023-11-22T09:40:08;1.50;99.90
7290;DHT22;63176;52.678;13.250;2023-11-22T09:42:35;1.60;99.90
7290;DHT22;63176;52.678;13.250;2023-11-22T09:45:02;1.60;99.90
7290;DHT22;63176;52.678;13.250;2023-11-22T09:47:29;1.60;99.90
7290;DHT22;63176;52.678;13.250;2023-11-22T09:49:57;1.70;99.90
7290;DHT22;63176;52.678;13.250;2023-11-22T09:52:28;1.70;99.90
7290;DHT22;63176;52.678;13.250;2023-11-22T09:54:54;1.70;99.90
7290;DHT22;63176;52.678;13.250;2023-11-22T09:57:22;1.70;99.90
7290;DHT22;63176;52.678;13.250;2023-11-22T09:59:51;1.80;99.90
7290;DHT22;63176;52.678;13.250;2023-11-22T10:02:18;1.90;99.90
7290;DHT22;63176;52.678;13.250;2023-11-22T10:04:45;1.90;99.90
7290;DHT22;63176;52.678;13.250;2023-11-22T10:07:11;2.00;99.90
7290;DHT22;63176;52.678;13.250;2023-11-22T10:09:37;2.00;99.90
7290;DHT22;63176;52.678;13.250;2023-11-22T10:12:03;2.00;99.90
7290;DHT22;63176;52.678;13.250;2023-11-22T10:14:30;2.10;99.90
7290;DHT22;63176;52.678;13.250;2023-11-22T10:17:02;2.20;99.90
7290;DHT22;63176;52.678;13.250;2023-11-22T10:19:28;2.20;99.90
7290;DHT22;63176;52.678;13.250;2023-11-22T10:22:07;2.20;99.90
7290;DHT22;63176;52.678;13.250;2023-11-22T10:24:33;2.30;99.90
7290;DHT22;63176;52.678;13.250;2023-11-22T10:27:02;2.30;99.90
7290;DHT22;63176;52.678;13.250;2023-11-22T10:29:28;2.30;99.90
7290;DHT22;63176;52.678;13.250;2023-11-22T10:31:55;2.30;99.90
7290;DHT22;63176;52.678;13.250;2023-11-22T10:34:24;2.40;99.90
7290;DHT22;63176;52.678;13.250;2023-11-22T10:36:51;2.40;99.90
7290;DHT22;63176;52.678;13.250;2023-11-22T10:39:20;2.40;99.90
7290;DHT22;63176;52.678;13.250;2023-11-22T10:41:47;2.50;99.90
7290;DHT22;63176;52.678;13.250;2023-11-22T10:44:13;2.50;99.90
7290;DHT22;63176;52.678;13.250;2023-11-22T10:46:41;2.60;99.90
7290;DHT22;63176;52.678;13.250;2023-11-22T10:49:06;2.60;99.90
7290;DHT22;63176;52.678;13.250;2023-11-22T10:51:33;2.50;99.90
7290;DHT22;63176;52.678;13.250;2023-11-22T10:54:00;2.50;99.90
7290;DHT22;63176;52.678;13.250;2023-11-22T10:56:30;2.50;99.90
7290;DHT22;63176;52.678;13.250;2023-11-22T10:59:09;2.50;99.90
7290;DHT22;63176;52.678;13.250;2023-11-22T11:01:35;2.60;99.90
7290;DHT22;63176;52.678;13.250;2023-11-22T11:04:09;2.60;99.90
7290;DHT22;63176;52.678;13.250;2023-11-22T11:06:37;2.70;99.90
7290;DHT22;63176;52.678;13.250;2023-11-22T11:09:06;2.70;99.90
7290;DHT22;63176;52.678;13.250;2023-11-22T11:11:37;2.70;99.90
7290;DHT22;63176;52.678;13.250;2023-11-22T11:14:05;2.70;99.90
7290;DHT22;63176;52.678;13.250;2023-11-22T11:16:35;2.70;99.90
7290;DHT22;63176;52.678;13.250;2023-11-22T11:19:14;2.80;99.90
7290;DHT22;63176;52.678;13.250;2023-11-22T11:21:40;2.90;99.90
7290;DHT22;63176;52.678;13.250;2023-11-22T11:24:06;2.90;99.90
7290;DHT22;63176;52.678;13.250;2023-11-22T11:26:33;2.90;99.90
7290;DHT22;63176;52.678;13.250;2023-11-22T11:29:01;2.90;99.90
7290;DHT22;63176;52.678;13.250;2023-11-22T11:31:33;3.00;99.90
7290;DHT22;63176;52.678;13.250;2023-11-22T11:34:05;3.00;99.90
7290;DHT22;63176;52.678;13.250;2023-11-22T11:36:32;3.00;99.90
7290;DHT22;63176;52.678;13.250;2023-11-22T11:39:00;3.00;99.90
7290;DHT22;63176;52.678;13.250;2023-11-22T11:41:28;3.00;99.90
7290;DHT22;63176;52.678;13.250;2023-11-22T11:43:55;3.00;99.90
7290;DHT22;63176;52.678;13.250;2023-11-22T11:46:22;3.10;99.90
7290;DHT22;63176;52.678;13.250;2023-11-22T11:48:54;3.10;99.90
7290;DHT22;63176;52.678;13.250;2023-11-22T11:51:28;3.20;99.90
7290;DHT22;63176;52.678;13.250;2023-11-22T11:53:55;3.20;99.90
7290;DHT22;63176;52.678;13.250;2023-11-22T11:56:21;3.20;99.90
7290;DHT22;63176;52.678;13.250;2023-11-22T11:58:48;3.20;99.90
7290;DHT22;63176;52.678;13.250;2023-11-22T12:01:18;3.10;99.90
7290;DHT22;63176;52.678;13.250;2023-11-22T12:03:47;3.20;99.90
7290;DHT22;63176;52.678;13.250;2023-11-22T12:06:17;3.10;99.90
7290;DHT22;63176;52.678;13.250;2023-11-22T12:08:45;3.10;99.90
7290;DHT22;63176;52.678;13.250;2023-11-22T12:11:13;3.10;99.90
7290;DHT22;63176;52.678;13.250;2023-11-22T12:13:39;3.20;99.90
7290;DHT22;63176;52.678;13.250;2023-11-22T12:16:09;3.20;99.90
7290;DHT22;63176;52.678;13.250;2023-11-22T12:18:47;3.30;99.90
7290;DHT22;63176;52.678;13.250;2023-11-22T12:21:13;3.30;99.90
7290;DHT22;63176;52.678;13.250;2023-11-22T12:23:41;3.40;99.90
7290;DHT22;63176;52.678;13.250;2023-11-22T12:26:15;3.40;99.90
7290;DHT22;63176;52.678;13.250;2023-11-22T12:28:41;3.40;99.90
7290;DHT22;63176;52.678;13.250;2023-11-22T12:31:12;3.50;99.90
7290;DHT22;63176;52.678;13.250;2023-11-22T12:33:40;3.50;99.90
7290;DHT22;63176;52.678;13.250;2023-11-22T12:36:07;3.50;99.90
7290;DHT22;63176;52.678;13.250;2023-11-22T12:38:40;3.50;99.90
7290;DHT22;63176;52.678;13.250;2023-11-22T12:41:06;3.40;99.90
7290;DHT22;63176;52.678;13.250;2023-11-22T12:43:33;3.50;99.90
7290;DHT22;63176;52.678;13.250;2023-11-22T12:46:04;3.50;99.90
7290;DHT22;63176;52.678;13.250;2023-11-22T12:48:33;3.50;99.90
7290;DHT22;63176;52.678;13.250;2023-11-22T12:51:00;3.60;99.90
7290;DHT22;63176;52.678;13.250;2023-11-22T12:53:26;3.60;99.90
7290;DHT22;63176;52.678;13.250;2023-11-22T12:55:56;3.60;99.90
7290;DHT22;63176;52.678;13.250;2023-11-22T12:58:23;3.60;99.90
7290;DHT22;63176;52.678;13.250;2023-11-22T13:00:53;3.60;99.90
7290;DHT22;63176;52.678;13.250;2023-11-22T13:03:27;3.60;99.90
7290;DHT22;63176;52.678;13.250;2023-11-22T13:05:53;3.60;99.90
7290;DHT22;63176;52.678;13.250;2023-11-22T13:08:19;3.70;99.90
7290;DHT22;63176;52.678;13.250;2023-11-22T13:10:45;3.70;99.90
7290;DHT22;63176;52.678;13.250;2023-11-22T13:13:13;3.60;99.90
7290;DHT22;63176;52.678;13.250;2023-11-22T13:15:39;3.70;99.90
7290;DHT22;63176;52.678;13.250;2023-11-22T13:18:08;3.60;99.90
7290;DHT22;63176;52.678;13.250;2023-11-22T13:20:34;3.70;99.90
7290;DHT22;63176;52.678;13.250;2023-11-22T13:23:00;3.70;99.90
7290;DHT22;63176;52.678;13.250;2023-11-22T13:25:28;3.70;99.90
7290;DHT22;63176;52.678;13.250;2023-11-22T13:27:54;3.70;99.90
7290;DHT22;63176;52.678;13.250;2023-11-22T13:30:22;3.70;99.90
7290;DHT22;63176;52.678;13.250;2023-11-22T13:32:57;3.80;99.90
7290;DHT22;63176;52.678;13.250;2023-11-22T13:35:24;3.80;99.90
7290;DHT22;63176;52.678;13.250;2023-11-22T13:37:51;3.70;99.90
7290;DHT22;63176;52.678;13.250;2023-11-22T13:40:19;3.80;99.90
7290;DHT22;63176;52.678;13.250;2023-11-22T13:42:49;3.80;99.90
7290;DHT22;63176;52.678;13.250;2023-11-22T13:45:16;3.80;99.90
7290;DHT22;63176;52.678;13.250;2023-11-22T13:47:46;3.80;99.90
7290;DHT22;63176;52.678;13.250;2023-11-22T13:50:17;3.60;99.90
7290;DHT22;63176;52.678;13.250;2023-11-22T13:52:54;3.60;99.90
7290;DHT22;63176;52.678;13.250;2023-11-22T13:55:21;3.60;99.90
7290;DHT22;63176;52.678;13.250;2023-11-22T13:57:55;3.60;99.90
7290;DHT22;63176;52.678;13.250;2023-11-22T14:00:22;3.50;99.90
7290;DHT22;63176;52.678;13.250;2023-11-22T14:02:51;3.40;99.90
7290;DHT22;63176;52.678;13.250;2023-11-22T14:05:18;3.40;99.90
7290;DHT22;63176;52.678;13.250;2023-11-22T14:07:44;3.30;99.90
7290;DHT22;63176;52.678;13.250;2023-11-22T14:10:10;3.30;99.90
7290;DHT22;63176;52.678;13.250;2023-11-22T14:12:37;3.30;99.90
7290;DHT22;63176;52.678;13.250;2023-11-22T14:15:04;3.30;99.90
7290;DHT22;63176;52.678;13.250;2023-11-22T14:17:33;3.30;99.90
7290;DHT22;63176;52.678;13.250;2023-11-22T14:19:58;3.40;99.90
7290;DHT22;63176;52.678;13.250;2023-11-22T14:22:24;3.30;99.90
7290;DHT22;63176;52.678;13.250;2023-11-22T14:24:50;3.30;99.90
7290;DHT22;63176;52.678;13.250;2023-11-22T14:27:17;3.10;99.90
7290;DHT22;63176;52.678;13.250;2023-11-22T14:29:43;3.00;99.90
7290;DHT22;63176;52.678;13.250;2023-11-22T14:32:12;2.90;99.90
7290;DHT22;63176;52.678;13.250;2023-11-22T14:34:38;2.70;99.90
7290;DHT22;63176;52.678;13.250;2023-11-22T14:37:04;2.70;99.90
7290;DHT22;63176;52.678;13.250;2023-11-22T14:39:31;2.60;99.90
7290;DHT22;63176;52.678;13.250;2023-11-22T14:41:56;2.50;99.90
7290;DHT22;63176;52.678;13.250;2023-11-22T14:44:22;2.50;99.90
7290;DHT22;63176;52.678;13.250;2023-11-22T14:46:48;2.40;99.90
7290;DHT22;63176;52.678;13.250;2023-11-22T14:49:14;2.40;99.90
7290;DHT22;63176;52.678;13.250;2023-11-22T14:51:40;2.30;99.90
7290;DHT22;63176;52.678;13.250;2023-11-22T14:54:06;2.30;99.90
7290;DHT22;63176;52.678;13.250;2023-11-22T14:56:32;2.30;99.90
7290;DHT22;63176;52.678;13.250;2023-11-22T14:58:59;2.40;99.90
7290;DHT22;63176;52.678;13.250;2023-11-22T15:01:25;2.40;99.90
7290;DHT22;63176;52.678;13.250;2023-11-22T15:03:51;2.30;99.90
7290;DHT22;63176;52.678;13.250;2023-11-22T15:06:20;2.30;99.90
7290;DHT22;63176;52.678;13.250;2023-11-22T15:08:46;2.30;99.90
7290;DHT22;63176;52.678;13.250;2023-11-22T15:11:13;2.30;99.90
7290;DHT22;63176;52.678;13.250;2023-11-22T15:13:40;2.10;99.90
7290;DHT22;63176;52.678;13.250;2023-11-22T15:16:06;2.10;99.90
7290;DHT22;63176;52.678;13.250;2023-11-22T15:18:31;2.00;99.90
7290;DHT22;63176;52.678;13.250;2023-11-22T15:20:57;2.00;99.90
7290;DHT22;63176;52.678;13.250;2023-11-22T15:23:23;2.00;99.90
7290;DHT22;63176;52.678;13.250;2023-11-22T15:25:49;2.00;99.90
7290;DHT22;63176;52.678;13.250;2023-11-22T15:28:15;2.00;99.90
7290;DHT22;63176;52.678;13.250;2023-11-22T15:30:51;1.90;99.90
7290;DHT22;63176;52.678;13.250;2023-11-22T15:33:27;1.90;99.90
7290;DHT22;63176;52.678;13.250;2023-11-22T15:35:56;1.90;99.90
7290;DHT22;63176;52.678;13.250;2023-11-22T15:38:21;2.10;99.90
7290;DHT22;63176;52.678;13.250;2023-11-22T15:40:48;2.10;99.90
7290;DHT22;63176;52.678;13.250;2023-11-22T15:43:14;2.10;99.90